Terminal Aerodrome Forecast
Issued by NWS

Home | Current Version | Previous Version | Text Only | Print | Product List | Glossary Off
Versions: 1 2 3 4 5 6 7 8 9 10 11 12 13 14 15 16 17 18 19 20 21 22 23 24 25 26 27 28

000
FTUS45 KGGW 240114 AAA
TAFGDV
TAF AMD
KGDV 240114Z 2401/2424 VRB15G25KT P6SM -TSRA BKN060CB BKN100
     FM240230 07005KT P6SM VCTS SCT100CB
     FM240800 25005KT P6SM SCT110
     FM241000 VRB04KT 6SM BR FEW002 BKN050
     FM241500 23005KT P6SM SCT022=

USA.gov is the U.S. government's official web portal to all federal, state and local government web resources and services.